Time;durP1;ratioP1;P1;durP2;ratioP2;P2;SDS_P1;SDS_P2;PMS_P1;PMS_P2;Temp;Humidity;BMP_temperature;BMP_pressure;BME280_temperature;BME280_humidity;BME280_pressure;Samples;Min_cycle;Max_cycle;Signal;HPM_P1;HPM_P2
2021/12/05 00:21:48;;;;;;;8.88;2.45;;;5.40;99.90;;;;;;5083114;28;20955;-81
2021/12/05 00:24:19;;;;;;;7.13;1.98;;;5.30;99.90;;;;;;5072673;28;20058;-81
2021/12/05 00:27:00;;;;;;;5.85;1.85;;;5.40;99.90;;;;;;5085995;28;20016;-84
2021/12/05 00:29:39;;;;;;;5.22;2.30;;;5.40;99.90;;;;;;5073174;28;20024;-79
2021/12/05 00:40:25;;;;;;;7.95;2.53;;;5.30;99.90;;;;;;5096611;28;20047;-83
2021/12/05 00:54:08;;;;;;;7.55;1.60;;;5.30;99.90;;;;;;5101668;28;20060;-82
2021/12/05 00:56:31;;;;;;;6.25;2.10;;;5.30;99.90;;;;;;5090475;28;20050;-83
2021/12/05 01:17:27;;;;;;;8.82;2.60;;;5.30;99.90;;;;;;5097799;28;20542;-83
2021/12/05 01:19:54;;;;;;;8.00;2.58;;;5.30;99.90;;;;;;5079998;28;20032;-82
2021/12/05 01:22:22;;;;;;;9.10;3.15;;;5.40;99.90;;;;;;5079909;28;20062;-83
2021/12/05 01:25:01;;;;;;;6.43;1.77;;;5.40;99.90;;;;;;5083777;28;20074;-82
2021/12/05 01:27:39;;;;;;;13.60;3.08;;;5.30;99.90;;;;;;5077697;28;20102;-84
2021/12/05 01:30:14;;;;;;;7.38;2.80;;;5.40;99.90;;;;;;5086138;28;20069;-81
2021/12/05 01:32:56;;;;;;;5.38;1.30;;;5.40;99.90;;;;;;5079958;28;20024;-82
2021/12/05 01:35:40;;;;;;;5.88;1.52;;;5.40;99.90;;;;;;5075160;28;20033;-85
2021/12/05 01:38:25;;;;;;;6.95;2.10;;;5.40;99.90;;;;;;5081914;28;20401;-83
2021/12/05 01:41:05;;;;;;;5.35;1.42;;;5.30;99.90;;;;;;5080062;28;20031;-81
2021/12/05 01:47:00;;;;;;;3.30;1.67;;;5.30;99.90;;;;;;5089312;28;20763;-84
2021/12/05 02:01:04;;;;;;;6.35;1.33;;;5.30;99.90;;;;;;5100593;28;20439;-87
2021/12/05 02:09:35;;;;;;;4.35;1.25;;;5.30;99.90;;;;;;5099009;28;20054;-82
2021/12/05 02:12:23;;;;;;;7.07;1.77;;;5.30;99.90;;;;;;5081246;28;20032;-82
2021/12/05 02:41:53;;;;;;;4.18;1.20;;;5.40;99.90;;;;;;5096706;28;20020;-86
2021/12/05 02:44:22;;;;;;;3.90;1.30;;;5.30;99.90;;;;;;5077631;28;20043;-84
2021/12/05 02:47:08;;;;;;;7.65;1.35;;;5.30;99.90;;;;;;5075942;28;20038;-84
2021/12/05 02:49:38;;;;;;;3.60;1.15;;;5.30;99.90;;;;;;5084366;28;20165;-84
2021/12/05 02:52:08;;;;;;;6.07;1.40;;;5.30;99.90;;;;;;5074290;28;20032;-84
2021/12/05 02:54:43;;;;;;;2.80;1.13;;;5.30;99.90;;;;;;5080542;28;20031;-81
2021/12/05 02:57:09;;;;;;;11.40;2.85;;;5.30;99.90;;;;;;5075363;28;20372;-85
2021/12/05 03:02:07;;;;;;;5.82;1.25;;;5.30;99.90;;;;;;5096210;28;20106;-83
2021/12/05 03:04:36;;;;;;;6.53;1.45;;;5.30;99.90;;;;;;5078106;28;20028;-84
2021/12/05 03:07:06;;;;;;;3.40;1.05;;;5.40;99.90;;;;;;5074878;28;20023;-84
2021/12/05 03:09:32;;;;;;;5.90;1.60;;;5.40;99.90;;;;;;5077032;28;20025;-83
2021/12/05 03:11:58;;;;;;;5.25;2.03;;;5.40;99.90;;;;;;5080220;28;20035;-83
2021/12/05 03:14:24;;;;;;;5.57;1.70;;;5.40;99.90;;;;;;5074198;28;20027;-82
2021/12/05 03:16:50;;;;;;;5.60;2.03;;;5.40;99.90;;;;;;5080987;28;20035;-84
2021/12/05 03:19:17;;;;;;;3.65;1.58;;;5.40;99.90;;;;;;5079988;28;20032;-81
2021/12/05 03:21:45;;;;;;;5.72;1.20;;;5.40;99.90;;;;;;5078741;28;20028;-83
2021/12/05 03:24:14;;;;;;;4.43;1.38;;;5.40;99.90;;;;;;5079140;28;20408;-86
2021/12/05 03:26:42;;;;;;;9.02;2.95;;;5.40;99.90;;;;;;5074369;28;20025;-86
2021/12/05 03:29:11;;;;;;;5.28;1.58;;;5.00;99.90;;;;;;5070674;28;20019;-84
2021/12/05 03:31:38;;;;;;;8.25;2.15;;;5.40;99.90;;;;;;5076581;28;20025;-85
2021/12/05 03:34:05;;;;;;;5.80;1.67;;;5.30;99.90;;;;;;5074984;28;20032;-84
2021/12/05 03:36:32;;;;;;;5.10;1.38;;;5.40;99.90;;;;;;5069945;28;20035;-85
2021/12/05 03:38:59;;;;;;;11.10;1.65;;;5.40;99.90;;;;;;5070127;28;20039;-88
2021/12/05 03:41:25;;;;;;;6.65;1.35;;;5.30;99.90;;;;;;5093900;28;20035;-86
2021/12/05 03:43:54;;;;;;;8.20;1.27;;;5.30;99.90;;;;;;5091595;28;20032;-84
2021/12/05 03:46:21;;;;;;;3.63;1.30;;;5.40;99.90;;;;;;5096297;28;20416;-86
2021/12/05 03:48:51;;;;;;;7.22;1.17;;;5.80;99.90;;;;;;5077599;28;20024;-84
2021/12/05 03:51:19;;;;;;;4.10;1.27;;;5.40;99.90;;;;;;5075764;28;20016;-83
2021/12/05 03:53:46;;;;;;;4.20;1.20;;;6.20;99.90;;;;;;5089350;28;20024;-87
2021/12/05 03:56:12;;;;;;;10.23;1.65;;;5.30;99.90;;;;;;5074341;28;20028;-86
2021/12/05 03:58:38;;;;;;;3.50;1.35;;;5.30;99.90;;;;;;5082801;28;20046;-87
2021/12/05 04:01:06;;;;;;;6.15;1.33;;;5.30;99.90;;;;;;5073139;28;20028;-83
2021/12/05 04:03:33;;;;;;;6.50;1.67;;;5.30;99.90;;;;;;5061316;28;20552;-83
2021/12/05 04:05:59;;;;;;;5.10;1.50;;;5.30;99.90;;;;;;5072123;28;20024;-84
2021/12/05 04:08:27;;;;;;;9.95;3.17;;;5.20;99.90;;;;;;5073242;28;20031;-83
2021/12/05 04:10:58;;;;;;;12.07;4.15;;;5.20;99.90;;;;;;5074669;28;20089;-84
2021/12/05 04:13:24;;;;;;;4.53;1.40;;;5.20;99.90;;;;;;5066846;28;20020;-87
2021/12/05 04:15:53;;;;;;;8.85;1.50;;;5.10;99.90;;;;;;5070881;28;20034;-86
2021/12/05 04:18:19;;;;;;;8.50;1.85;;;5.10;99.90;;;;;;5069870;28;20474;-85
2021/12/05 04:20:46;;;;;;;5.97;1.67;;;5.00;99.90;;;;;;5071789;28;20035;-87
2021/12/05 04:23:12;;;;;;;7.05;1.48;;;5.00;99.90;;;;;;5069212;28;20024;-86
2021/12/05 04:25:38;;;;;;;4.50;1.13;;;5.20;99.90;;;;;;5076567;28;20045;-86
2021/12/05 04:28:12;;;;;;;3.67;1.50;;;6.00;99.90;;;;;;5087730;28;20097;-84
2021/12/05 04:30:38;;;;;;;5.70;1.65;;;4.90;99.90;;;;;;5088838;28;20024;-88
2021/12/05 04:33:05;;;;;;;4.47;1.38;;;5.90;99.90;;;;;;5079900;28;20038;-87
2021/12/05 04:35:30;;;;;;;4.97;1.23;;;5.90;99.90;;;;;;5083190;28;20028;-86
2021/12/05 04:37:56;;;;;;;9.20;1.73;;;5.50;99.90;;;;;;5088421;28;20474;-89
2021/12/05 04:40:25;;;;;;;5.32;1.67;;;5.00;99.90;;;;;;5092926;28;20024;-87
2021/12/05 04:42:51;;;;;;;7.13;2.05;;;5.10;99.90;;;;;;5096340;28;20054;-87
2021/12/05 04:45:25;;;;;;;4.50;1.50;;;5.00;99.90;;;;;;5080943;28;20005;-88
2021/12/05 04:47:51;;;;;;;7.32;1.70;;;6.10;99.90;;;;;;5082686;28;20504;-84
2021/12/05 04:50:18;;;;;;;6.72;2.00;;;6.10;99.90;;;;;;5076196;28;20021;-85
2021/12/05 04:52:44;;;;;;;10.48;1.70;;;5.10;99.90;;;;;;5083670;28;20031;-86
2021/12/05 04:55:10;;;;;;;6.18;1.85;;;5.00;99.90;;;;;;5083799;28;20033;-86
2021/12/05 04:57:37;;;;;;;5.50;1.73;;;5.20;99.90;;;;;;5082610;28;20032;-89
2021/12/05 05:00:07;;;;;;;6.13;1.60;;;5.70;99.90;;;;;;5083592;28;20055;-90
2021/12/05 05:02:33;;;;;;;7.28;2.08;;;4.90;99.90;;;;;;5096457;28;20046;-89
2021/12/05 05:05:02;;;;;;;7.60;1.80;;;6.20;99.90;;;;;;5089323;28;20028;-89
2021/12/05 05:07:30;;;;;;;5.32;2.00;;;6.00;99.90;;;;;;5087615;28;20032;-86
2021/12/05 05:10:01;;;;;;;6.28;1.65;;;5.30;99.90;;;;;;5084834;28;20024;-88
2021/12/05 05:12:27;;;;;;;4.63;1.42;;;4.90;99.90;;;;;;5081879;28;20023;-85
2021/12/05 05:14:54;;;;;;;3.88;2.03;;;5.70;99.90;;;;;;5082844;28;20024;-89
2021/12/05 05:17:20;;;;;;;15.65;2.95;;;5.70;99.90;;;;;;5086401;28;20107;-86
2021/12/05 05:19:58;;;;;;;5.60;1.35;;;5.80;99.90;;;;;;5090904;28;20027;-89
2021/12/05 05:22:50;;;;;;;7.25;1.90;;;6.20;99.90;;;;;;5084999;28;20028;-87
2021/12/05 05:28:22;;;;;;;4.75;1.38;;;6.00;99.90;;;;;;5105053;28;20017;-89
2021/12/05 05:41:58;;;;;;;6.75;1.73;;;5.10;99.90;;;;;;5104441;28;20047;-90
2021/12/05 05:44:34;;;;;;;8.60;2.78;;;5.10;99.90;;;;;;5098078;28;20093;-87
2021/12/05 05:50:07;;;;;;;4.20;1.38;;;5.10;99.90;;;;;;5072405;28;19987;-88
2021/12/05 05:52:33;;;;;;;4.50;1.50;;;5.10;99.90;;;;;;5087788;28;20580;-85
2021/12/05 05:55:00;;;;;;;9.25;1.50;;;5.10;99.90;;;;;;5096548;28;20059;-87
2021/12/05 05:57:44;;;;;;;4.95;1.73;;;5.60;99.90;;;;;;5085163;28;20027;-88
2021/12/05 06:00:19;;;;;;;5.57;1.60;;;5.10;99.90;;;;;;5083579;28;20062;-88
2021/12/05 06:05:32;;;;;;;5.05;1.20;;;5.80;99.90;;;;;;5108317;28;20692;-87
2021/12/05 06:07:57;;;;;;;7.00;1.30;;;5.90;99.90;;;;;;5085172;28;20035;-87
2021/12/05 06:10:26;;;;;;;3.55;1.77;;;5.00;99.90;;;;;;5091493;28;20031;-89
2021/12/05 06:12:52;;;;;;;5.75;2.28;;;5.30;99.90;;;;;;5091104;28;20019;-85
2021/12/05 06:15:20;;;;;;;3.28;1.23;;;5.90;99.90;;;;;;5091674;28;20031;-90
2021/12/05 06:17:46;;;;;;;4.88;1.27;;;5.00;99.90;;;;;;5089111;28;20028;-89
2021/12/05 06:20:16;;;;;;;4.03;1.02;;;5.70;99.90;;;;;;5098808;28;20555;-86
2021/12/05 06:22:45;;;;;;;3.60;1.02;;;5.70;99.90;;;;;;5088564;28;20501;-86
2021/12/05 06:25:22;;;;;;;3.30;1.13;;;5.60;99.90;;;;;;5100110;28;20032;-87
2021/12/05 06:27:50;;;;;;;3.28;1.30;;;4.80;99.90;;;;;;5108579;28;20024;-88
2021/12/05 06:30:27;;;;;;;3.95;1.20;;;4.90;99.90;;;;;;5096321;28;20024;-87
2021/12/05 06:41:17;;;;;;;3.90;1.25;;;4.90;99.90;;;;;;5111788;28;20092;-89
2021/12/05 06:46:29;;;;;;;;;;;4.80;99.90;;;;;;5113442;28;20016;-89
2021/12/05 06:48:55;;;;;;;4.60;1.67;;;5.80;99.90;;;;;;5090994;28;19904;-89
2021/12/05 06:51:23;;;;;;;4.95;1.42;;;5.20;99.90;;;;;;5091748;28;20056;-86
2021/12/05 06:53:53;;;;;;;3.75;1.77;;;5.60;99.90;;;;;;5093466;28;20012;-86
2021/12/05 06:56:19;;;;;;;7.35;1.52;;;4.80;99.90;;;;;;5090920;28;20404;-90
2021/12/05 06:58:45;;;;;;;5.38;1.70;;;4.70;99.90;;;;;;5087581;28;20088;-89
2021/12/05 07:01:11;;;;;;;7.57;2.22;;;5.40;99.90;;;;;;5093050;28;20047;-89
2021/12/05 07:03:41;;;;;;;5.72;1.60;;;5.70;99.90;;;;;;5087554;28;20016;-89
2021/12/05 07:06:10;;;;;;;4.63;1.60;;;5.70;99.90;;;;;;5086241;28;20111;-89
2021/12/05 07:08:39;;;;;;;4.95;1.38;;;4.70;99.90;;;;;;5099821;28;20042;-89
2021/12/05 07:11:16;;;;;;;6.63;1.60;;;4.70;99.90;;;;;;5088543;28;20035;-88
2021/12/05 07:19:13;;;;;;;4.20;1.92;;;4.20;99.90;;;;;;5096684;28;20048;-88
2021/12/05 07:21:54;;;;;;;4.45;1.65;;;4.80;99.90;;;;;;5078361;28;20397;-89
2021/12/05 07:40:22;;;;;;;4.82;1.70;;;5.30;99.90;;;;;;5103916;28;20471;-87
2021/12/05 07:40:29;;;;;;;3.05;1.60;;;5.70;99.90;;;;;;5095517;28;20127;-88
2021/12/05 07:43:07;;;;;;;3.08;1.58;;;4.50;99.90;;;;;;5089947;28;20039;-88
2021/12/05 07:45:41;;;;;;;5.13;1.95;;;4.50;99.90;;;;;;5082825;28;20028;-86
2021/12/05 07:48:18;;;;;;;4.65;1.38;;;5.60;99.90;;;;;;5073702;28;20873;-86
2021/12/05 07:50:53;;;;;;;3.20;1.30;;;4.50;99.90;;;;;;5078526;28;20023;-88
2021/12/05 07:53:26;;;;;;;2.92;1.35;;;4.60;99.90;;;;;;5096482;28;20027;-91
2021/12/05 07:55:55;;;;;;;4.75;1.50;;;5.40;99.90;;;;;;5093898;28;20062;-87
2021/12/05 08:14:20;;;;;;;3.70;1.63;;;4.50;99.90;;;;;;5096933;28;20034;-85
2021/12/05 08:17:13;;;;;;;;;;;;;;;;;;;;;
2021/12/05 08:19:59;;;;;;;3.55;1.40;;;4.70;99.90;;;;;;5082510;28;20099;-87
2021/12/05 08:26:47;;;;;;;3.50;1.50;;;4.60;99.90;;;;;;5040162;28;20044;-87
2021/12/05 08:29:17;;;;;;;4.85;1.73;;;4.60;99.90;;;;;;5018816;28;20044;-85
2021/12/05 09:29:16;;;;;;;3.88;2.03;;;4.90;99.90;;;;;;5087391;28;20067;-87
2021/12/05 10:36:23;;;;;;;3.10;1.60;;;5.90;99.90;;;;;;5072156;28;20025;-88
2021/12/05 10:38:53;;;;;;;3.50;1.70;;;6.10;99.90;;;;;;5050962;28;20053;-83
2021/12/05 10:44:08;;;;;;;3.05;1.27;;;6.20;99.90;;;;;;5055116;28;20074;-88
2021/12/05 10:46:34;;;;;;;3.47;1.40;;;;;;;;;;5046725;28;20025;-88
2021/12/05 10:49:03;;;;;;;3.95;1.85;;;;;;;;;;5046389;28;20043;-88
2021/12/05 10:51:37;;;;;;;2.53;1.55;;;6.10;99.90;;;;;;5043881;28;20060;-88
2021/12/05 10:54:21;;;;;;;3.85;1.42;;;6.00;99.90;;;;;;5035634;28;20056;-86
2021/12/05 10:57:00;;;;;;;4.55;1.42;;;6.20;99.90;;;;;;5036876;28;20206;-88
2021/12/05 10:59:36;;;;;;;3.28;1.83;;;6.10;99.90;;;;;;5031120;28;20032;-88
2021/12/05 11:02:06;;;;;;;3.13;1.38;;;6.20;99.90;;;;;;5034199;28;20025;-82
2021/12/05 11:04:41;;;;;;;2.65;1.40;;;6.20;99.90;;;;;;5045186;28;20037;-89
2021/12/05 11:07:07;;;;;;;3.70;1.52;;;;;;;;;;5030560;28;20029;-85
2021/12/05 11:09:36;;;;;;;3.92;1.77;;;;;;;;;;5041979;28;20037;-87
2021/12/05 11:12:33;;;;;;;4.43;1.63;;;6.20;99.90;;;;;;5028930;28;20031;-89
2021/12/05 11:15:04;;;;;;;2.92;1.65;;;6.10;99.90;;;;;;5006987;28;20106;-85
2021/12/05 11:17:37;;;;;;;3.22;1.77;;;6.20;99.90;;;;;;5036451;28;20021;-89
2021/12/05 11:20:03;;;;;;;3.28;1.30;;;;;;;;;;5027905;28;20170;-87
2021/12/05 11:22:43;;;;;;;3.15;1.38;;;6.30;99.90;;;;;;5042471;28;20037;-87
2021/12/05 11:25:12;;;;;;;3.63;1.60;;;6.40;99.90;;;;;;5021716;28;20131;-89
2021/12/05 11:27:45;;;;;;;2.05;1.25;;;6.40;99.90;;;;;;5033381;28;20025;-87
2021/12/05 11:30:18;;;;;;;3.50;1.23;;;6.30;99.90;;;;;;5030305;28;20386;-84
2021/12/05 11:33:17;;;;;;;5.60;1.98;;;6.30;99.90;;;;;;5033708;28;20033;-87
2021/12/05 11:35:57;;;;;;;3.85;1.30;;;6.20;99.90;;;;;;5023058;28;20537;-83
2021/12/05 11:38:24;;;;;;;3.72;1.40;;;6.10;99.90;;;;;;5035049;28;20524;-84
2021/12/05 11:41:14;;;;;;;4.13;1.35;;;6.10;99.90;;;;;;5031030;28;20070;-84
2021/12/05 11:43:56;;;;;;;3.87;1.40;;;6.00;99.90;;;;;;5035519;28;20168;-88
2021/12/05 11:46:35;;;;;;;3.67;1.25;;;6.00;99.90;;;;;;5033233;28;20483;-87
2021/12/05 11:49:13;;;;;;;2.63;1.65;;;6.10;99.90;;;;;;5032805;28;20029;-87
2021/12/05 11:51:45;;;;;;;2.65;1.20;;;6.10;99.90;;;;;;5030789;28;20094;-87
2021/12/05 11:55:00;;;;;;;4.88;1.80;;;6.20;99.90;;;;;;5033820;28;20036;-89
2021/12/05 11:57:27;;;;;;;3.70;1.75;;;6.20;99.90;;;;;;5029185;28;20040;-85
2021/12/05 12:00:00;;;;;;;3.83;1.33;;;6.10;99.90;;;;;;5034213;28;20051;-86
2021/12/05 12:02:30;;;;;;;4.07;1.50;;;6.10;99.90;;;;;;5034446;28;20036;-87
2021/12/05 12:05:04;;;;;;;5.20;1.70;;;6.10;99.90;;;;;;5032383;28;20036;-88
2021/12/05 12:08:05;;;;;;;2.60;1.30;;;6.10;99.90;;;;;;5034144;28;20036;-85
2021/12/05 12:11:03;;;;;;;2.35;1.05;;;6.20;99.90;;;;;;5038813;28;20020;-89
2021/12/05 12:13:34;;;;;;;3.00;1.20;;;6.20;99.90;;;;;;5040308;28;20067;-88
2021/12/05 12:16:08;;;;;;;3.08;1.20;;;6.30;99.90;;;;;;5045945;28;20028;-87
2021/12/05 12:18:45;;;;;;;4.47;1.80;;;6.30;99.90;;;;;;5039669;28;20156;-87
2021/12/05 12:21:12;;;;;;;3.60;1.33;;;;;;;;;;5046501;28;20041;-88
2021/12/05 12:23:39;;;;;;;5.53;1.67;;;6.20;99.90;;;;;;5059130;28;20548;-88
2021/12/05 12:26:10;;;;;;;3.17;1.35;;;6.10;99.90;;;;;;5041404;28;20032;-88
2021/12/05 12:28:36;;;;;;;2.88;1.20;;;;;;;;;;5058804;28;20027;-85
2021/12/05 12:31:15;;;;;;;3.22;1.33;;;6.00;99.90;;;;;;5046395;28;20033;-87
2021/12/05 12:33:47;;;;;;;4.57;1.48;;;6.10;99.90;;;;;;5054793;28;20096;-84
2021/12/05 12:36:18;;;;;;;3.97;1.10;;;6.10;99.90;;;;;;5027340;28;20025;-84
2021/12/05 12:38:45;;;;;;;1.80;1.10;;;;;;;;;;5030425;28;20497;-87
2021/12/05 12:41:23;;;;;;;2.05;1.10;;;6.20;99.90;;;;;;5041212;28;20029;-84
2021/12/05 12:43:49;;;;;;;4.05;1.33;;;;;;;;;;5044784;28;20252;-88
2021/12/05 12:46:40;;;;;;;4.80;1.33;;;6.30;99.90;;;;;;5029757;28;20043;-84
2021/12/05 12:49:15;;;;;;;3.00;1.13;;;6.30;99.90;;;;;;5028470;28;20061;-89
2021/12/05 12:51:44;;;;;;;1.98;1.00;;;5.10;99.90;;;;;;5039822;28;20041;-87
2021/12/05 12:54:17;;;;;;;3.53;1.33;;;6.40;99.90;;;;;;5027086;28;20036;-90
2021/12/05 12:57:08;;;;;;;2.53;1.10;;;6.40;99.90;;;;;;5043590;28;20025;-87
2021/12/05 12:59:39;;;;;;;2.45;1.33;;;6.40;99.90;;;;;;5041040;28;20028;-84
2021/12/05 13:10:43;;;;;;;6.00;1.15;;;6.40;99.90;;;;;;5046948;28;20064;-90
2021/12/05 13:13:26;;;;;;;2.42;1.10;;;6.40;99.90;;;;;;5027365;28;20033;-85
2021/12/05 13:16:00;;;;;;;4.60;1.20;;;6.40;99.90;;;;;;5024705;28;20848;-89
2021/12/05 13:18:26;;;;;;;3.13;1.63;;;;;;;;;;5019104;28;20025;-88
2021/12/05 13:21:06;;;;;;;4.10;1.33;;;6.50;99.90;;;;;;5031352;28;20152;-86
2021/12/05 13:23:43;;;;;;;2.53;1.25;;;6.40;99.90;;;;;;5043366;28;20101;-85
2021/12/05 13:26:09;;;;;;;3.80;1.58;;;;;;;;;;5017350;28;20068;-87
2021/12/05 13:28:44;;;;;;;1.88;1.08;;;6.50;99.90;;;;;;5033029;28;20120;-89
2021/12/05 13:31:28;;;;;;;3.90;1.50;;;6.50;99.90;;;;;;5030328;28;20045;-88
2021/12/05 13:34:31;;;;;;;2.50;1.08;;;6.50;99.90;;;;;;5040568;28;20029;-89
2021/12/05 13:37:06;;;;;;;6.18;1.73;;;;;;;;;;5039021;28;20029;-86
2021/12/05 13:39:37;;;;;;;3.53;1.30;;;6.30;99.90;;;;;;5051963;28;20029;-89
2021/12/05 13:42:11;;;;;;;3.20;1.50;;;6.20;99.90;;;;;;5041236;28;20561;-88
2021/12/05 13:44:59;;;;;;;5.05;1.98;;;6.10;99.90;;;;;;5042474;28;20032;-86
2021/12/05 13:47:29;;;;;;;3.28;1.30;;;6.20;99.90;;;;;;5039196;28;20114;-88
2021/12/05 13:49:56;;;;;;;4.20;1.40;;;6.30;99.90;;;;;;5037989;28;20037;-89
2021/12/05 13:52:32;;;;;;;3.65;1.60;;;6.00;99.90;;;;;;5042814;28;20043;-87
2021/12/05 13:55:36;;;;;;;2.78;1.48;;;6.30;99.90;;;;;;5039253;28;20100;-86
2021/12/05 13:58:30;;;;;;;3.40;1.27;;;6.30;99.90;;;;;;5019939;28;20029;-88
2021/12/05 14:00:56;;;;;;;2.72;1.50;;;6.40;99.90;;;;;;5034962;28;20112;-88
2021/12/05 14:04:00;;;;;;;3.72;1.92;;;6.40;99.90;;;;;;5040051;28;20334;-84
2021/12/05 14:06:34;;;;;;;4.00;1.92;;;6.40;99.90;;;;;;4938335;29;20490;-85
2021/12/05 14:09:22;;;;;;;4.75;1.30;;;6.40;99.90;;;;;;5038078;28;20045;-87
2021/12/05 14:11:54;;;;;;;4.15;1.50;;;6.40;99.90;;;;;;5037866;28;20431;-86
2021/12/05 14:14:43;;;;;;;3.33;1.52;;;6.40;99.90;;;;;;5050839;28;20053;-89
2021/12/05 14:17:12;;;;;;;4.32;1.70;;;6.50;99.90;;;;;;5056379;28;20029;-87
2021/12/05 14:19:42;;;;;;;5.20;1.50;;;6.60;99.90;;;;;;5040773;28;20028;-86
2021/12/05 14:22:11;;;;;;;2.58;1.30;;;6.60;99.90;;;;;;5043253;28;20117;-85
2021/12/05 14:24:40;;;;;;;3.47;1.10;;;6.60;99.90;;;;;;5042145;28;20021;-86
2021/12/05 14:27:10;;;;;;;3.20;1.20;;;6.50;99.90;;;;;;5039174;28;20087;-90
2021/12/05 14:29:40;;;;;;;3.47;1.40;;;6.60;99.90;;;;;;5039400;28;20039;-87
2021/12/05 14:32:20;;;;;;;5.32;1.42;;;6.30;99.90;;;;;;5055793;28;20342;-87
2021/12/05 14:34:46;;;;;;;3.42;1.33;;;6.60;99.90;;;;;;5025641;28;20083;-86
2021/12/05 14:37:19;;;;;;;5.47;1.20;;;6.50;99.90;;;;;;5028972;28;20025;-86
2021/12/05 14:39:52;;;;;;;3.03;1.40;;;6.50;99.90;;;;;;5030157;28;20040;-85
2021/12/05 14:42:24;;;;;;;2.40;1.50;;;6.20;99.90;;;;;;5021974;28;20048;-90
2021/12/05 14:44:53;;;;;;;3.65;1.45;;;6.40;99.90;;;;;;5027627;28;20032;-89
2021/12/05 14:47:21;;;;;;;2.90;1.25;;;6.40;99.90;;;;;;5028954;28;20567;-90
2021/12/05 14:49:53;;;;;;;4.47;1.40;;;10.00;99.90;;;;;;5027496;28;20056;-87
2021/12/05 14:52:23;;;;;;;3.50;1.20;;;5.50;99.90;;;;;;5024356;28;20128;-89
2021/12/05 14:54:49;;;;;;;3.63;2.60;;;9.00;99.90;;;;;;5031654;28;20025;-88
2021/12/05 14:57:23;;;;;;;3.53;1.30;;;7.20;99.90;;;;;;5036613;28;20039;-87
2021/12/05 14:59:58;;;;;;;2.72;1.50;;;6.40;99.90;;;;;;5025210;28;20021;-88
2021/12/05 15:02:24;;;;;;;3.20;1.42;;;6.20;99.90;;;;;;5027346;28;20071;-91
2021/12/05 15:04:53;;;;;;;3.33;1.10;;;6.40;99.90;;;;;;5028408;28;20053;-88
2021/12/05 15:07:20;;;;;;;2.95;1.42;;;6.40;99.90;;;;;;5029299;28;20402;-88
2021/12/05 15:09:49;;;;;;;3.30;1.38;;;6.30;99.90;;;;;;5020095;28;20600;-90
2021/12/05 15:12:20;;;;;;;4.20;2.22;;;6.30;99.90;;;;;;5023974;28;20032;-88
2021/12/05 15:14:49;;;;;;;3.15;1.50;;;6.30;99.90;;;;;;5021649;28;20032;-87
2021/12/05 15:17:21;;;;;;;3.75;1.50;;;6.30;99.90;;;;;;5045017;28;20025;-87
2021/12/05 15:19:54;;;;;;;3.25;1.60;;;5.90;99.90;;;;;;5025306;28;20056;-89
2021/12/05 15:22:20;;;;;;;5.32;1.80;;;6.20;99.90;;;;;;5026415;28;20494;-88
2021/12/05 15:24:56;;;;;;;3.25;1.85;;;6.10;99.90;;;;;;5024033;28;20029;-87
2021/12/05 15:27:25;;;;;;;4.10;2.13;;;6.20;99.90;;;;;;5022916;28;20079;-89
2021/12/05 15:29:56;;;;;;;8.85;4.88;;;6.20;99.90;;;;;;5022934;28;20027;-86
2021/12/05 15:32:23;;;;;;;;;;;6.10;99.90;;;;;;5029605;28;20039;-86
2021/12/05 15:34:52;;;;;;;7.35;2.95;;;6.10;99.90;;;;;;5049285;28;20159;-85
2021/12/05 15:37:18;;;;;;;5.25;2.58;;;6.10;99.90;;;;;;5058989;28;20391;-88
2021/12/05 15:39:46;;;;;;;5.65;2.58;;;6.10;99.90;;;;;;5044435;28;20036;-89
2021/12/05 15:42:15;;;;;;;5.60;2.55;;;8.20;99.90;;;;;;5026350;28;20166;-87
2021/12/05 15:44:42;;;;;;;4.20;2.08;;;;;;;;;;5034520;28;20025;-91
2021/12/05 15:47:12;;;;;;;5.90;2.28;;;6.10;99.90;;;;;;5050167;28;20482;-89
2021/12/05 15:49:49;;;;;;;5.28;2.83;;;5.70;99.90;;;;;;5039874;28;20021;-84
2021/12/05 15:52:17;;;;;;;4.10;1.75;;;6.10;99.90;;;;;;5053438;28;20085;-88
2021/12/05 15:54:44;;;;;;;3.65;1.77;;;6.10;99.90;;;;;;5052144;28;20075;-88
2021/12/05 15:57:20;;;;;;;7.15;2.42;;;5.90;99.90;;;;;;5037322;28;20025;-88
2021/12/05 15:59:47;;;;;;;4.63;2.05;;;6.10;99.90;;;;;;5037753;28;20492;-88
2021/12/05 16:02:19;;;;;;;4.20;1.60;;;9.00;99.90;;;;;;5039244;28;20029;-87
2021/12/05 16:04:46;;;;;;;4.45;1.65;;;6.10;99.90;;;;;;5037652;28;20028;-89
2021/12/05 16:07:12;;;;;;;6.28;2.10;;;6.00;99.90;;;;;;5035890;28;20031;-89
2021/12/05 16:09:41;;;;;;;5.82;1.98;;;6.00;99.90;;;;;;5029179;28;20029;-88
2021/12/05 16:12:14;;;;;;;6.18;2.45;;;6.10;99.90;;;;;;5034021;28;20037;-88
2021/12/05 16:14:49;;;;;;;3.38;1.80;;;6.00;99.90;;;;;;5029344;28;20759;-89
2021/12/05 16:17:29;;;;;;;4.70;1.98;;;6.10;99.90;;;;;;5031482;28;20025;-89
2021/12/05 16:20:16;;;;;;;5.63;1.92;;;6.10;99.90;;;;;;5042256;28;20541;-86
2021/12/05 16:22:59;;;;;;;3.92;1.75;;;6.30;99.90;;;;;;5039039;28;20044;-87
2021/12/05 16:25:25;;;;;;;4.28;1.45;;;6.00;99.90;;;;;;5035317;28;20079;-89
2021/12/05 16:28:01;;;;;;;3.92;1.80;;;7.40;99.90;;;;;;5031391;28;20051;-87
2021/12/05 16:30:34;;;;;;;4.57;1.75;;;5.90;99.90;;;;;;5030348;28;20200;-87
2021/12/05 16:33:01;;;;;;;4.72;2.00;;;6.00;99.90;;;;;;5033090;28;20044;-86
2021/12/05 16:35:43;;;;;;;9.18;3.55;;;5.90;99.90;;;;;;5031307;28;20376;-90
2021/12/05 16:38:26;;;;;;;4.22;2.30;;;5.90;99.90;;;;;;5025677;28;20028;-89
2021/12/05 16:40:56;;;;;;;4.65;2.10;;;5.90;99.90;;;;;;5027620;28;20024;-85
2021/12/05 16:43:22;;;;;;;6.13;2.30;;;5.90;99.90;;;;;;5042711;28;20113;-87
2021/12/05 16:45:48;;;;;;;6.47;2.53;;;6.40;99.90;;;;;;5027348;28;20287;-89
2021/12/05 16:48:17;;;;;;;5.00;2.75;;;5.80;99.90;;;;;;5029135;28;20031;-87
2021/12/05 16:50:44;;;;;;;5.93;2.88;;;8.10;99.90;;;;;;5028062;28;20119;-87
2021/12/05 16:53:13;;;;;;;5.40;1.73;;;;;;;;;;5023355;28;20033;-85
2021/12/05 16:55:45;;;;;;;5.00;1.80;;;5.80;99.90;;;;;;5017997;28;20028;-86
2021/12/05 16:58:17;;;;;;;3.55;1.70;;;5.90;99.90;;;;;;5036021;28;20055;-89
2021/12/05 17:00:52;;;;;;;5.50;1.83;;;8.50;99.90;;;;;;5025925;28;20024;-86
2021/12/05 17:03:23;;;;;;;3.67;1.40;;;5.70;99.90;;;;;;5041831;28;20034;-86
2021/12/05 17:05:50;;;;;;;;;;;6.20;99.90;;;;;;5027901;28;20025;-88
2021/12/05 17:08:27;;;;;;;4.50;1.50;;;5.70;99.90;;;;;;5028590;28;19916;-88
2021/12/05 17:11:05;;;;;;;4.10;1.55;;;5.60;99.90;;;;;;5026180;28;20079;-89
2021/12/05 17:13:31;;;;;;;4.75;1.50;;;5.60;99.90;;;;;;5037019;28;20506;-86
2021/12/05 17:16:12;;;;;;;6.85;3.42;;;5.50;99.90;;;;;;5025463;28;20075;-90
2021/12/05 17:18:43;;;;;;;4.10;1.67;;;5.60;99.90;;;;;;5037337;28;20027;-88
2021/12/05 17:21:14;;;;;;;4.68;1.67;;;5.40;99.90;;;;;;5013501;28;20044;-87
2021/12/05 17:23:59;;;;;;;8.77;3.80;;;5.50;99.90;;;;;;5021452;28;21105;-89
2021/12/05 17:26:31;;;;;;;2.70;1.38;;;5.60;99.90;;;;;;5041913;28;20073;-89
2021/12/05 17:29:20;;;;;;;5.55;1.73;;;5.60;99.90;;;;;;5027193;28;20044;-88
2021/12/05 17:31:56;;;;;;;6.43;2.53;;;5.60;99.90;;;;;;5042845;28;20051;-85
2021/12/05 17:34:25;;;;;;;3.55;2.03;;;5.60;99.90;;;;;;5031979;28;20558;-85
2021/12/05 17:37:06;;;;;;;5.90;2.05;;;5.40;99.90;;;;;;5028902;28;20079;-90
2021/12/05 17:39:43;;;;;;;3.97;1.88;;;5.40;99.90;;;;;;5027002;28;20356;-83
2021/12/05 17:42:13;;;;;;;3.40;1.60;;;5.20;99.90;;;;;;5028534;28;20092;-87
2021/12/05 17:44:41;;;;;;;3.38;1.50;;;8.20;99.90;;;;;;5034577;28;20063;-87
2021/12/05 17:47:09;;;;;;;3.80;1.40;;;5.20;99.90;;;;;;5018530;28;20033;-88
2021/12/05 17:49:36;;;;;;;5.13;1.63;;;5.10;99.90;;;;;;5024022;28;20409;-89
2021/12/05 17:52:05;;;;;;;2.60;1.50;;;5.10;99.90;;;;;;5023325;28;20025;-88
2021/12/05 17:54:50;;;;;;;2.63;1.38;;;5.10;99.90;;;;;;5029179;28;20029;-88
2021/12/05 17:57:18;;;;;;;4.20;2.38;;;5.10;99.90;;;;;;5030532;28;20026;-88
2021/12/05 18:02:46;;;;;;;2.33;1.30;;;5.10;99.90;;;;;;5050489;28;20420;-88
2021/12/05 18:05:27;;;;;;;1.98;0.95;;;5.10;99.90;;;;;;5026632;28;20029;-89
2021/12/05 18:07:54;;;;;;;;;;;5.10;99.90;;;;;;5042586;28;20209;-90
2021/12/05 18:10:25;;;;;;;2.05;1.40;;;5.10;99.90;;;;;;5032839;28;19923;-89
2021/12/05 18:12:52;;;;;;;2.55;1.63;;;;;;;;;;5030448;28;20046;-89
2021/12/05 18:15:25;;;;;;;4.88;1.40;;;5.00;99.90;;;;;;5043350;28;20486;-90
2021/12/05 18:17:52;;;;;;;3.13;1.55;;;5.00;99.90;;;;;;5032321;28;20062;-89
2021/12/05 18:20:22;;;;;;;3.30;1.30;;;5.10;99.90;;;;;;5031398;28;20101;-85
2021/12/05 18:22:48;;;;;;;3.03;1.30;;;;;;;;;;5026280;28;20028;-89
2021/12/05 18:25:15;;;;;;;2.95;1.40;;;;;;;;;;5032683;28;20344;-89
2021/12/05 18:27:43;;;;;;;3.38;1.70;;;5.00;99.90;;;;;;5042606;28;20359;-89
2021/12/05 18:30:12;;;;;;;13.13;4.97;;;5.00;99.90;;;;;;5025477;28;20783;-88
2021/12/05 18:32:38;;;;;;;13.60;4.93;;;;;;;;;;5038042;28;20120;-87
2021/12/05 18:35:06;;;;;;;6.93;2.88;;;5.00;99.90;;;;;;5039784;28;20123;-87
2021/12/05 18:37:32;;;;;;;4.32;1.90;;;;;;;;;;5032561;28;20017;-88
2021/12/05 18:39:58;;;;;;;5.95;2.47;;;;;;;;;;5046393;28;20021;-89
2021/12/05 18:42:27;;;;;;;5.05;2.40;;;5.00;99.90;;;;;;5044172;28;20445;-89
2021/12/05 18:44:58;;;;;;;4.45;2.00;;;5.10;99.90;;;;;;5028126;28;20056;-86
2021/12/05 18:47:25;;;;;;;4.55;2.40;;;5.10;99.90;;;;;;5040012;28;20036;-87